createdAt,value
2023-02-05T00:02:19.757Z,100425.50
2023-02-05T00:05:12.129Z,100426.19
2023-02-05T00:08:04.291Z,100430.91
2023-02-05T00:10:56.936Z,100437.45
2023-02-05T00:13:49.037Z,100434.92
2023-02-05T00:16:41.189Z,100439.39
2023-02-05T00:19:33.260Z,100436.77
2023-02-05T00:22:25.362Z,100441.62
2023-02-05T00:25:17.653Z,100440.95
2023-02-05T00:28:09.757Z,100441.44
2023-02-05T00:31:02.305Z,100441.14
2023-02-05T00:33:54.652Z,100437.54
2023-02-05T00:36:46.890Z,100442.67
2023-02-05T00:39:39.065Z,100436.94
2023-02-05T00:42:31.975Z,100435.80
2023-02-05T00:45:24.048Z,100438.83
2023-02-05T00:48:16.201Z,100437.64
2023-02-05T00:51:09.357Z,100437.52
2023-02-05T00:54:01.462Z,100440.91
2023-02-05T00:56:53.576Z,100441.63
2023-02-05T00:59:45.632Z,100442.35
2023-02-05T01:02:37.827Z,100441.49
2023-02-05T01:05:30.721Z,100442.16
2023-02-05T01:08:22.895Z,100441.92
2023-02-05T01:11:15.122Z,100440.47
2023-02-05T01:14:07.210Z,100438.01
2023-02-05T01:16:59.309Z,100439.06
2023-02-05T01:19:51.418Z,100434.55
2023-02-05T01:22:43.764Z,100438.20
2023-02-05T01:25:36.137Z,100441.29
2023-02-05T01:28:28.381Z,100441.91
2023-02-05T01:31:20.748Z,100447.58
2023-02-05T01:34:12.986Z,100448.34
2023-02-05T01:37:05.125Z,100451.61
2023-02-05T01:39:57.274Z,100446.35
2023-02-05T01:42:49.421Z,100447.17
2023-02-05T01:46:15.008Z,100446.45
2023-02-05T01:49:09.312Z,100446.27
2023-02-05T01:52:06.603Z,100442.65
2023-02-05T01:54:58.872Z,100445.79
2023-02-05T01:57:52.705Z,100446.39
2023-02-05T02:00:45.375Z,100449.84
2023-02-05T02:03:38.413Z,100455.27
2023-02-05T02:06:30.560Z,100454.39
2023-02-05T02:09:22.936Z,100454.23
2023-02-05T02:12:17.227Z,100460.63
2023-02-05T02:15:13.534Z,100460.82
2023-02-05T02:18:20.801Z,100460.96
2023-02-05T02:21:57.780Z,100466.30
2023-02-05T02:25:05.702Z,100465.82
2023-02-05T02:28:04.615Z,100460.58
2023-02-05T02:31:05.245Z,100465.56
2023-02-05T02:34:04.768Z,100462.83
2023-02-05T02:37:02.372Z,100468.03
2023-02-05T02:40:02.673Z,100469.77
2023-02-05T02:43:01.686Z,100474.08
2023-02-05T02:45:57.452Z,100476.15
2023-02-05T02:48:51.708Z,100482.89
2023-02-05T02:51:45.140Z,100480.19
2023-02-05T02:54:41.642Z,100479.73
2023-02-05T02:57:36.959Z,100478.30
2023-02-05T03:00:30.322Z,100479.98
2023-02-05T03:03:25.773Z,100480.39
2023-02-05T03:06:05.105Z,100479.98
2023-02-05T03:09:01.050Z,100480.30
2023-02-05T03:11:53.271Z,100478.10
2023-02-05T03:14:45.679Z,100472.25
2023-02-05T03:17:38.748Z,100470.84
2023-02-05T03:20:34.487Z,100474.44
2023-02-05T03:23:27.448Z,100477.34
2023-02-05T03:26:27.549Z,100478.17
2023-02-05T03:29:45.516Z,100471.44
2023-02-05T03:32:55.575Z,100468.59
2023-02-05T03:35:54.202Z,100471.73
2023-02-05T03:38:59.898Z,100473.67
2023-02-05T03:41:59.354Z,100475.08
2023-02-05T03:45:23.302Z,100476.89
2023-02-05T03:48:33.090Z,100472.31
2023-02-05T03:51:33.836Z,100475.31
2023-02-05T03:54:33.757Z,100474.86
2023-02-05T03:57:29.945Z,100475.09
2023-02-05T04:00:22.681Z,100476.84
2023-02-05T04:03:15.909Z,100469.92
2023-02-05T04:06:09.291Z,100476.05
2023-02-05T04:09:01.358Z,100477.73
2023-02-05T04:11:53.393Z,100481.34
2023-02-05T04:14:45.608Z,100483.25
2023-02-05T04:17:20.181Z,100486.11
2023-02-05T04:20:13.933Z,100486.97
2023-02-05T04:23:06.003Z,100485.58
2023-02-05T04:25:58.520Z,100485.42
2023-02-05T04:28:50.683Z,100485.27
2023-02-05T04:31:42.799Z,100489.39
2023-02-05T04:34:34.920Z,100494.64
2023-02-05T04:37:27.121Z,100492.95
2023-02-05T04:40:19.654Z,100493.41
2023-02-05T04:43:11.787Z,100494.95
2023-02-05T04:46:09.085Z,100506.25
2023-02-05T04:49:01.365Z,100508.17
2023-02-05T04:51:53.540Z,100514.15
2023-02-05T04:54:45.580Z,100515.58
2023-02-05T04:57:38.116Z,100525.16
2023-02-05T05:00:21.059Z,100528.06
2023-02-05T05:03:13.276Z,100534.39
2023-02-05T05:06:07.897Z,100534.30
2023-02-05T05:09:00.039Z,100538.25
2023-02-05T05:11:44.966Z,100543.85
2023-02-05T05:14:37.626Z,100546.50
2023-02-05T05:17:29.829Z,100552.30
2023-02-05T05:20:22.115Z,100549.95
2023-02-05T05:23:14.176Z,100553.77
2023-02-05T05:26:09.120Z,100556.90
2023-02-05T05:29:01.369Z,100563.13
2023-02-05T05:31:55.917Z,100561.79
2023-02-05T05:34:48.048Z,100558.27
2023-02-05T05:37:20.060Z,100560.81
2023-02-05T05:40:09.573Z,100565.68
2023-02-05T05:43:19.518Z,100568.52
2023-02-05T05:46:11.862Z,100573.31
2023-02-05T05:49:05.113Z,100579.98
2023-02-05T05:51:39.682Z,100583.48
2023-02-05T05:54:31.805Z,100580.89
2023-02-05T05:57:24.074Z,100585.27
2023-02-05T06:00:17.692Z,100587.57
2023-02-05T06:03:10.965Z,100589.67
2023-02-05T06:06:05.014Z,100593.17
2023-02-05T06:08:39.798Z,100603.27
2023-02-05T06:11:31.911Z,100605.05
2023-02-05T06:14:24.009Z,100604.20
2023-02-05T06:17:16.136Z,100606.42
2023-02-05T06:20:09.672Z,100612.84
2023-02-05T06:23:01.828Z,100614.92
2023-02-05T06:25:45.207Z,100617.88
2023-02-05T06:28:37.422Z,100625.31
2023-02-05T06:31:29.552Z,100631.52
2023-02-05T06:34:10.330Z,100631.17
2023-02-05T06:37:03.268Z,100632.20
2023-02-05T06:39:55.335Z,100634.34
2023-02-05T06:42:47.599Z,100635.10
2023-02-05T06:45:39.665Z,100635.31
2023-02-05T06:48:31.769Z,100637.78
2023-02-05T06:51:23.879Z,100639.54
2023-02-05T06:54:05.661Z,100638.89
2023-02-05T06:56:57.691Z,100638.68
2023-02-05T06:59:49.752Z,100637.64
2023-02-05T07:02:42.179Z,100634.90
2023-02-05T07:05:35.821Z,100632.15
2023-02-05T07:08:24.224Z,100636.85
2023-02-05T07:11:16.359Z,100641.28
2023-02-05T07:14:08.444Z,100644.54
2023-02-05T07:17:00.659Z,100643.31
2023-02-05T07:19:53.222Z,100645.74
2023-02-05T07:22:47.013Z,100649.50
2023-02-05T07:25:39.124Z,100653.98
2023-02-05T07:28:14.382Z,100654.86
2023-02-05T07:31:08.123Z,100664.70
2023-02-05T07:34:00.292Z,100664.66
2023-02-05T07:36:54.232Z,100669.23
2023-02-05T07:39:46.430Z,100670.42
2023-02-05T07:42:38.642Z,100670.71
2023-02-05T07:45:30.738Z,100678.73
2023-02-05T07:48:22.845Z,100680.38
2023-02-05T07:51:19.249Z,100680.77
2023-02-05T07:54:14.531Z,100679.20
2023-02-05T07:57:07.077Z,100676.56
2023-02-05T07:59:59.221Z,100670.80
2023-02-05T08:02:51.332Z,100675.35
2023-02-05T08:05:43.613Z,100678.35
2023-02-05T08:08:35.922Z,100686.98
2023-02-05T08:11:27.995Z,100689.09
2023-02-05T08:14:20.112Z,100693.89
2023-02-05T08:17:12.206Z,100703.15
2023-02-05T08:20:07.476Z,100711.17
2023-02-05T08:22:59.560Z,100719.05
2023-02-05T08:25:55.972Z,100727.02
2023-02-05T08:28:48.122Z,100734.08
2023-02-05T08:31:40.569Z,100740.53
2023-02-05T08:34:34.182Z,100742.89
2023-02-05T08:37:26.377Z,100734.27
2023-02-05T08:40:19.682Z,100732.09
2023-02-05T08:43:12.232Z,100726.20
2023-02-05T08:46:06.099Z,100728.25
2023-02-05T08:48:58.278Z,100732.52
2023-02-05T08:51:50.937Z,100732.10
2023-02-05T08:54:43.024Z,100735.52
2023-02-05T08:57:35.215Z,100736.04
2023-02-05T09:00:28.252Z,100732.02
2023-02-05T09:03:20.777Z,100731.85
2023-02-05T09:06:15.416Z,100726.09
2023-02-05T09:09:07.862Z,100726.41
2023-02-05T09:12:00.037Z,100727.84
2023-02-05T09:14:52.145Z,100732.71
2023-02-05T09:17:45.426Z,100738.77
2023-02-05T09:20:41.893Z,100744.28
2023-02-05T09:23:34.161Z,100745.75
2023-02-05T09:26:26.673Z,100750.56
2023-02-05T09:29:18.881Z,100749.91
2023-02-05T09:32:09.564Z,100751.65
2023-02-05T09:35:01.682Z,100758.89
2023-02-05T09:37:53.883Z,100756.18
2023-02-05T09:40:55.757Z,100758.85
2023-02-05T09:43:55.724Z,100762.92
2023-02-05T09:46:54.590Z,100761.05
2023-02-05T09:49:51.636Z,100762.41
2023-02-05T09:52:47.724Z,100761.30
2023-02-05T09:55:42.515Z,100766.10
2023-02-05T09:58:41.397Z,100771.45
2023-02-05T10:01:42.520Z,100772.20
2023-02-05T10:04:34.759Z,100767.96
2023-02-05T10:07:38.572Z,100763.98
2023-02-05T10:10:36.358Z,100762.09
2023-02-05T10:13:41.892Z,100759.14
2023-02-05T10:17:00.690Z,100761.09
2023-02-05T10:20:10.219Z,100759.85
2023-02-05T10:23:15.872Z,100760.12
2023-02-05T10:26:13.325Z,100750.25
2023-02-05T10:29:20.072Z,100749.59
2023-02-05T10:32:21.246Z,100749.35
2023-02-05T10:35:24.870Z,100745.31
2023-02-05T10:38:23.075Z,100742.97
2023-02-05T10:41:25.542Z,100739.74
2023-02-05T10:44:24.427Z,100741.12
2023-02-05T10:47:24.395Z,100735.95
2023-02-05T10:50:26.514Z,100731.41
2023-02-05T10:53:22.881Z,100732.27
2023-02-05T10:56:20.234Z,100733.13
2023-02-05T10:59:21.372Z,100731.71
2023-02-05T11:02:13.486Z,100730.48
2023-02-05T11:05:16.101Z,100731.54
2023-02-05T11:08:35.705Z,100725.77
2023-02-05T11:11:30.803Z,100716.23
2023-02-05T11:14:28.674Z,100712.98
2023-02-05T11:17:24.994Z,100712.19
2023-02-05T11:20:29.760Z,100717.57
2023-02-05T11:23:23.474Z,100719.36
2023-02-05T11:26:21.005Z,100719.68
2023-02-05T11:29:25.505Z,100721.96
2023-02-05T11:32:32.406Z,100717.88
2023-02-05T11:35:28.108Z,100712.39
2023-02-05T11:38:29.797Z,100713.67
2023-02-05T11:41:31.662Z,100711.64
2023-02-05T11:44:30.184Z,100709.01
2023-02-05T11:47:28.190Z,100707.64
2023-02-05T11:50:26.110Z,100707.44
2023-02-05T11:53:20.703Z,100701.47
2023-02-05T11:56:21.973Z,100694.29
2023-02-05T11:59:24.083Z,100692.55
2023-02-05T12:02:33.378Z,100688.44
2023-02-05T12:05:32.044Z,100688.47
2023-02-05T12:08:33.126Z,100686.36
2023-02-05T12:11:52.609Z,100689.16
2023-02-05T12:14:49.613Z,100685.42
2023-02-05T12:18:00.181Z,100682.70
2023-02-05T12:20:39.465Z,100675.86
2023-02-05T12:23:45.987Z,100674.39
2023-02-05T12:26:41.039Z,100673.73
2023-02-05T12:29:52.921Z,100680.84
2023-02-05T12:32:56.601Z,100684.18
2023-02-05T12:36:05.300Z,100684.27
2023-02-05T12:39:09.102Z,100685.58
2023-02-05T12:42:12.634Z,100688.74
2023-02-05T12:45:24.977Z,100685.61
2023-02-05T12:48:30.426Z,100685.50
2023-02-05T12:51:37.295Z,100686.63
2023-02-05T12:54:47.628Z,100677.84
2023-02-05T12:57:45.332Z,100682.02
2023-02-05T13:00:42.354Z,100683.86
2023-02-05T13:03:49.571Z,100690.27
2023-02-05T13:06:47.765Z,100684.22
2023-02-05T13:09:49.069Z,100682.21
2023-02-05T13:12:46.631Z,100681.42
2023-02-05T13:15:44.092Z,100685.95
2023-02-05T13:18:40.796Z,100690.71
2023-02-05T13:21:51.699Z,100699.67
2023-02-05T13:25:06.730Z,100690.86
2023-02-05T13:28:20.207Z,100692.20
2023-02-05T13:31:20.855Z,100692.55
2023-02-05T13:34:05.578Z,100694.38
2023-02-05T13:45:59.910Z,100689.33
2023-02-05T13:49:25.671Z,100686.92
2023-02-05T13:52:36.508Z,100685.95
2023-02-05T13:55:49.082Z,100684.95
2023-02-05T13:58:49.551Z,100684.14
2023-02-05T14:01:45.933Z,100683.83
2023-02-05T14:04:41.658Z,100681.63
2023-02-05T14:07:36.918Z,100680.11
2023-02-05T14:10:31.927Z,100674.62
2023-02-05T14:13:28.480Z,100667.04
2023-02-05T14:16:39.352Z,100671.30
2023-02-05T14:19:58.380Z,100665.08
2023-02-05T14:22:50.842Z,100672.27
2023-02-05T14:26:11.787Z,100673.02
2023-02-05T14:29:04.447Z,100674.27
2023-02-05T14:31:56.565Z,100678.07
2023-02-05T14:34:58.628Z,100679.42
2023-02-05T14:37:51.225Z,100681.52
2023-02-05T14:40:43.508Z,100681.48
2023-02-05T14:43:39.411Z,100682.55
2023-02-05T14:46:34.217Z,100682.75
2023-02-05T14:49:29.165Z,100690.26
2023-02-05T14:52:31.212Z,100685.46
2023-02-05T14:55:30.053Z,100684.89
2023-02-05T14:58:28.227Z,100684.96
2023-02-05T15:01:54.444Z,100686.13
2023-02-05T15:04:50.376Z,100689.85
2023-02-05T15:07:28.676Z,100687.96
2023-02-05T15:10:06.686Z,100689.92
2023-02-05T15:13:10.132Z,100692.59
2023-02-05T15:16:21.023Z,100697.19
2023-02-05T15:19:16.522Z,100698.76
2023-02-05T15:22:26.261Z,100698.46
2023-02-05T15:25:29.896Z,100696.42
2023-02-05T15:28:28.489Z,100687.10
2023-02-05T15:31:27.655Z,100683.66
2023-02-05T15:34:29.355Z,100694.73
2023-02-05T15:37:24.868Z,100691.73
2023-02-05T15:40:15.754Z,100687.98
2023-02-05T15:43:20.003Z,100691.80
2023-02-05T15:46:15.713Z,100695.00
2023-02-05T15:49:09.160Z,100698.19
2023-02-05T15:52:01.870Z,100702.77
2023-02-05T15:54:57.007Z,100696.59
2023-02-05T15:57:50.431Z,100700.73
2023-02-05T16:00:46.541Z,100704.38
2023-02-05T16:03:39.792Z,100707.29
2023-02-05T16:06:52.827Z,100706.27
2023-02-05T16:09:49.164Z,100703.72
2023-02-05T16:12:41.369Z,100705.84
2023-02-05T16:15:38.238Z,100705.84
2023-02-05T16:18:38.371Z,100703.33
2023-02-05T16:21:33.921Z,100706.31
2023-02-05T16:24:31.827Z,100709.05
2023-02-05T16:27:08.455Z,100719.16
2023-02-05T16:30:07.480Z,100727.67
2023-02-05T16:32:58.020Z,100727.82
2023-02-05T16:35:40.202Z,100724.88
2023-02-05T16:38:32.924Z,100731.20
2023-02-05T16:41:28.469Z,100731.71
2023-02-05T16:44:33.620Z,100736.15
2023-02-05T16:47:25.811Z,100747.48
2023-02-05T16:50:38.171Z,100750.24
2023-02-05T16:53:26.566Z,100758.00
2023-02-05T16:56:25.786Z,100758.00
2023-02-05T16:59:23.085Z,100755.10
2023-02-05T17:02:29.206Z,100749.88
2023-02-05T17:05:27.935Z,100755.15
2023-02-05T17:08:32.091Z,100755.16
2023-02-05T17:11:39.481Z,100752.75
2023-02-05T17:14:35.839Z,100754.52
2023-02-05T17:17:29.864Z,100758.20
2023-02-05T17:20:21.567Z,100754.90
2023-02-05T17:23:15.688Z,100749.40
2023-02-05T17:26:10.724Z,100744.35
2023-02-05T17:28:57.014Z,100746.80
2023-02-05T17:31:49.433Z,100746.81
2023-02-05T17:34:21.489Z,100749.04
2023-02-05T17:37:13.850Z,100750.27
2023-02-05T17:40:06.869Z,100755.17
2023-02-05T17:42:59.391Z,100756.21
2023-02-05T17:45:51.783Z,100760.40
2023-02-05T17:48:44.617Z,100767.74
2023-02-05T17:51:41.737Z,100764.27
2023-02-05T17:54:33.940Z,100768.27
2023-02-05T17:57:26.268Z,100769.98
2023-02-05T18:00:18.386Z,100766.48
2023-02-05T18:03:10.528Z,100761.99
2023-02-05T18:06:02.676Z,100764.83
2023-02-05T18:08:54.730Z,100775.80
2023-02-05T18:11:47.147Z,100781.19
2023-02-05T18:14:39.572Z,100787.83
2023-02-05T18:17:31.662Z,100788.38
2023-02-05T18:20:24.515Z,100793.75
2023-02-05T18:23:28.397Z,100798.27
2023-02-05T18:26:22.220Z,100802.76
2023-02-05T18:29:14.580Z,100810.05
2023-02-05T18:32:07.853Z,100809.00
2023-02-05T18:35:00.251Z,100808.36
2023-02-05T18:37:52.374Z,100809.05
2023-02-05T18:40:44.900Z,100807.46
2023-02-05T18:43:37.729Z,100810.60
2023-02-05T18:46:30.234Z,100804.48
2023-02-05T18:49:22.458Z,100804.14
2023-02-05T18:52:14.984Z,100804.11
2023-02-05T18:55:08.798Z,100803.86
2023-02-05T18:58:01.115Z,100808.30
2023-02-05T19:00:53.265Z,100810.96
2023-02-05T19:03:46.086Z,100813.02
2023-02-05T19:06:38.299Z,100816.32
2023-02-05T19:09:31.325Z,100816.16
2023-02-05T19:12:23.434Z,100819.66
2023-02-05T19:15:15.753Z,100821.50
2023-02-05T19:18:08.010Z,100823.65
2023-02-05T19:21:06.449Z,100830.64
2023-02-05T19:24:00.971Z,100823.84
2023-02-05T19:26:56.488Z,100821.59
2023-02-05T19:29:48.543Z,100824.76
2023-02-05T19:32:40.906Z,100824.94
2023-02-05T19:35:33.004Z,100817.31
2023-02-05T19:38:25.129Z,100814.39
2023-02-05T19:41:20.107Z,100812.73
2023-02-05T19:43:59.842Z,100811.73
2023-02-05T19:46:39.938Z,100808.08
2023-02-05T19:49:32.909Z,100811.77
2023-02-05T19:52:09.778Z,100813.38
2023-02-05T19:55:01.932Z,100818.25
2023-02-05T19:57:54.392Z,100814.27
2023-02-05T20:00:46.465Z,100807.14
2023-02-05T20:03:38.905Z,100803.96
2023-02-05T20:06:32.280Z,100807.94
2023-02-05T20:09:24.668Z,100809.66
2023-02-05T20:12:17.004Z,100817.80
2023-02-05T20:15:11.478Z,100823.34
2023-02-05T20:18:03.594Z,100826.96
2023-02-05T20:20:35.625Z,100831.63
2023-02-05T20:23:28.334Z,100843.64
2023-02-05T20:26:22.186Z,100842.77
2023-02-05T20:29:31.974Z,100845.40
2023-02-05T20:32:24.046Z,100843.00
2023-02-05T20:35:16.401Z,100839.70
2023-02-05T20:38:08.837Z,100842.02
2023-02-05T20:41:01.555Z,100846.73
2023-02-05T20:43:54.567Z,100850.91
2023-02-05T20:46:46.806Z,100860.34
2023-02-05T20:49:40.876Z,100862.14
2023-02-05T20:52:31.454Z,100860.48
2023-02-05T20:55:23.821Z,100857.86
2023-02-05T20:58:17.638Z,100857.52
2023-02-05T21:01:11.601Z,100858.62
2023-02-05T21:04:03.789Z,100861.45
2023-02-05T21:06:37.251Z,100870.39
2023-02-05T21:09:14.548Z,100872.30
2023-02-05T21:12:07.283Z,100862.23
2023-02-05T21:14:59.470Z,100866.80
2023-02-05T21:17:51.632Z,100873.06
2023-02-05T21:20:44.002Z,100873.06
2023-02-05T21:23:36.807Z,100881.73
2023-02-05T21:26:31.430Z,100886.44
2023-02-05T21:29:24.001Z,100892.20
2023-02-05T21:32:16.242Z,100896.06
2023-02-05T21:35:09.421Z,100902.49
2023-02-05T21:38:01.649Z,100915.71
2023-02-05T21:40:53.714Z,100909.14
2023-02-05T21:43:28.647Z,100912.98
2023-02-05T21:46:21.793Z,100917.42
2023-02-05T21:49:13.904Z,100921.35
2023-02-05T21:52:06.216Z,100923.30
2023-02-05T21:54:58.421Z,100924.33
2023-02-05T21:57:35.812Z,100924.52
2023-02-05T22:00:27.934Z,100925.21
2023-02-05T22:03:20.067Z,100928.52
2023-02-05T22:06:12.402Z,100928.75
2023-02-05T22:09:06.962Z,100928.30
2023-02-05T22:12:03.609Z,100935.27
2023-02-05T22:14:55.702Z,100937.46
2023-02-05T22:17:47.764Z,100939.81
2023-02-05T22:20:39.895Z,100937.35
2023-02-05T22:23:32.420Z,100947.55
2023-02-05T22:26:26.961Z,100947.04
2023-02-05T22:29:20.969Z,100942.55
2023-02-05T22:32:13.012Z,100943.42
2023-02-05T22:35:05.296Z,100940.66
2023-02-05T22:37:57.476Z,100944.13
2023-02-05T22:40:49.602Z,100948.82
2023-02-05T22:43:42.134Z,100954.73
2023-02-05T22:46:15.767Z,100959.57
2023-02-05T22:49:08.243Z,100955.39
2023-02-05T22:52:00.459Z,100960.75
2023-02-05T22:54:52.507Z,100968.55
2023-02-05T22:57:44.669Z,100960.03
2023-02-05T23:00:37.204Z,100961.95
2023-02-05T23:03:12.236Z,100967.85
2023-02-05T23:06:10.735Z,100964.89
2023-02-05T23:09:05.630Z,100962.27
2023-02-05T23:11:58.400Z,100962.05
2023-02-05T23:14:50.549Z,100971.24
2023-02-05T23:17:42.969Z,100970.89
2023-02-05T23:20:35.167Z,100975.39
2023-02-05T23:23:27.560Z,100973.31
2023-02-05T23:26:21.638Z,100964.77
2023-02-05T23:29:16.040Z,100968.06
2023-02-05T23:32:14.867Z,100973.58
2023-02-05T23:35:08.308Z,100968.20
2023-02-05T23:38:00.437Z,100972.02
2023-02-05T23:40:53.075Z,100960.58
2023-02-05T23:43:45.113Z,100965.95
2023-02-05T23:46:37.602Z,100965.28
2023-02-05T23:49:29.671Z,100958.84
2023-02-05T23:52:21.807Z,100963.34
2023-02-05T23:55:13.938Z,100960.05
2023-02-05T23:58:06.508Z,100954.30
